Time;durP1;ratioP1;P1;durP2;ratioP2;P2;SDS_P1;SDS_P2;PMS_P1;PMS_P2;Temp;Humidity;BMP_temperature;BMP_pressure;BME280_temperature;BME280_humidity;BME280_pressure;Samples;Min_cycle;Max_cycle;Signal;HPM_P1;HPM_P2
2022/01/24 00:02:28;;;;;;;10.82;7.25;;;6.40;99.90;;;;;;5036056;28;20489;-64
2022/01/24 00:04:54;;;;;;;9.55;6.93;;;6.40;99.90;;;;;;5045124;28;20615;-64
2022/01/24 00:07:22;;;;;;;8.10;6.53;;;6.50;99.90;;;;;;5044702;28;20077;-64
2022/01/24 00:09:49;;;;;;;8.38;6.60;;;6.50;99.90;;;;;;5044337;28;20049;-64
2022/01/24 00:12:26;;;;;;;9.85;6.70;;;6.50;99.90;;;;;;5043855;28;20099;-64
2022/01/24 00:15:14;;;;;;;;;;;;;;;;;;;;;
2022/01/24 00:28:05;;;;;;;7.95;6.25;;;6.40;99.90;;;;;;5044588;28;20106;-64
2022/01/24 00:30:31;;;;;;;6.93;6.23;;;6.40;99.90;;;;;;5042933;28;20053;-64
2022/01/24 00:32:57;;;;;;;9.05;5.97;;;6.40;99.90;;;;;;5042762;28;20320;-64
2022/01/24 00:35:22;;;;;;;7.38;6.28;;;6.40;99.90;;;;;;5044604;28;20105;-64
2022/01/24 00:37:48;;;;;;;10.20;6.47;;;6.40;99.90;;;;;;5044450;28;20079;-64
2022/01/24 00:40:15;;;;;;;7.15;6.15;;;6.30;99.90;;;;;;5044780;28;20056;-63
2022/01/24 00:45:13;;;;;;;7.38;6.47;;;6.30;99.90;;;;;;5043796;28;20062;-63
2022/01/24 00:55:19;;;;;;;8.18;6.57;;;6.30;99.90;;;;;;5043595;28;20588;-63
2022/01/24 00:57:44;;;;;;;9.57;6.47;;;6.30;99.90;;;;;;5042936;28;20058;-64
2022/01/24 01:00:11;;;;;;;6.75;5.57;;;6.30;99.90;;;;;;5043650;28;20042;-64
2022/01/24 01:02:36;;;;;;;6.95;5.65;;;6.20;99.90;;;;;;5064291;28;20139;-64
2022/01/24 01:08:01;;;;;;;6.60;5.65;;;6.20;99.90;;;;;;5040167;28;20320;-64
2022/01/24 01:18:43;;;;;;;7.38;5.78;;;6.20;99.90;;;;;;5024208;28;20093;-63
2022/01/24 01:21:14;;;;;;;7.82;5.75;;;6.20;99.90;;;;;;5041322;28;20042;-64
2022/01/24 01:23:49;;;;;;;6.93;5.80;;;6.20;99.90;;;;;;5041962;28;20132;-64
2022/01/24 01:26:39;;;;;;;6.68;5.72;;;6.20;99.90;;;;;;5042779;28;20076;-63
2022/01/24 01:29:07;;;;;;;9.95;5.95;;;6.20;99.90;;;;;;5043229;28;20046;-64
2022/01/24 01:57:57;;;;;;;6.68;5.60;;;6.00;99.90;;;;;;5040716;28;20192;-64
2022/01/24 02:00:23;;;;;;;6.95;5.82;;;6.00;99.90;;;;;;5025302;28;20091;-64
2022/01/24 02:02:48;;;;;;;7.67;5.87;;;6.00;99.90;;;;;;5041104;28;20112;-63
2022/01/24 02:05:15;;;;;;;7.67;5.20;;;6.00;99.90;;;;;;5043210;28;20288;-64
2022/01/24 02:07:44;;;;;;;;;;;6.00;99.90;;;;;;5041645;28;20079;-63
2022/01/24 02:10:10;;;;;;;6.47;5.30;;;5.90;99.90;;;;;;5041084;28;20004;-63
2022/01/24 02:12:36;;;;;;;6.63;5.23;;;6.00;99.90;;;;;;5039919;28;20083;-64
2022/01/24 02:15:02;;;;;;;7.55;5.20;;;6.00;99.90;;;;;;5041118;28;20049;-63
2022/01/24 02:17:47;;;;;;;6.65;5.30;;;5.90;99.90;;;;;;5041097;28;20121;-64
2022/01/24 02:25:43;;;;;;;7.40;5.70;;;5.90;99.90;;;;;;5041312;28;20178;-63
2022/01/24 02:28:11;;;;;;;6.80;5.22;;;5.90;99.90;;;;;;5041006;28;20083;-63
2022/01/24 02:30:52;;;;;;;8.05;5.10;;;5.90;99.90;;;;;;5042312;28;20064;-64
2022/01/24 02:33:18;;;;;;;7.78;5.55;;;5.90;99.90;;;;;;5040625;28;20124;-64
2022/01/24 02:35:45;;;;;;;7.07;5.82;;;5.90;99.90;;;;;;5042426;28;20457;-64
2022/01/24 02:38:25;;;;;;;7.68;5.93;;;5.90;99.90;;;;;;5040564;28;20041;-63
2022/01/24 02:49:13;;;;;;;7.22;5.30;;;5.80;99.90;;;;;;5040426;28;20052;-64
2022/01/24 02:51:48;;;;;;;7.15;5.60;;;5.80;99.90;;;;;;5040041;28;20069;-64
2022/01/24 02:54:22;;;;;;;8.05;5.95;;;5.80;99.90;;;;;;5023918;28;20381;-63
2022/01/24 02:56:49;;;;;;;8.10;5.40;;;5.80;99.90;;;;;;5040619;28;20362;-64
2022/01/24 02:59:14;;;;;;;5.70;5.03;;;5.80;99.90;;;;;;5041653;28;20088;-64
2022/01/24 03:01:45;;;;;;;6.97;5.47;;;5.80;99.90;;;;;;5040246;28;20045;-64
2022/01/24 03:04:11;;;;;;;7.65;5.80;;;5.80;99.90;;;;;;5042142;28;20075;-64
2022/01/24 03:06:37;;;;;;;6.57;5.50;;;5.80;99.90;;;;;;5040173;28;20037;-63
2022/01/24 03:09:04;;;;;;;7.57;5.82;;;5.80;99.90;;;;;;5041421;28;20139;-64
2022/01/24 03:11:52;;;;;;;6.63;5.63;;;5.80;99.90;;;;;;5040078;28;20033;-64
2022/01/24 03:14:18;;;;;;;7.35;5.40;;;5.80;99.90;;;;;;5042000;28;20061;-64
2022/01/24 03:16:44;;;;;;;6.75;5.60;;;5.80;99.90;;;;;;5040545;28;20045;-64
2022/01/24 03:19:09;;;;;;;8.20;5.60;;;5.80;99.90;;;;;;5040218;28;20143;-63
2022/01/24 03:21:35;;;;;;;7.13;5.90;;;5.70;99.90;;;;;;5040450;28;20045;-63
2022/01/24 03:24:01;;;;;;;7.37;5.70;;;5.70;99.90;;;;;;5041498;28;20300;-64
2022/01/24 03:26:26;;;;;;;8.33;6.43;;;5.70;99.90;;;;;;5041947;28;20134;-64
2022/01/24 03:28:52;;;;;;;7.45;5.80;;;5.70;99.90;;;;;;5056803;28;20069;-63
2022/01/24 03:31:18;;;;;;;7.67;5.93;;;5.70;99.90;;;;;;5007358;28;20129;-64
2022/01/24 03:33:44;;;;;;;7.57;6.10;;;5.80;99.90;;;;;;5042915;28;20068;-64
2022/01/24 03:36:10;;;;;;;8.93;6.40;;;5.70;99.90;;;;;;5044422;28;20049;-63
2022/01/24 03:38:36;;;;;;;8.53;6.73;;;5.70;99.90;;;;;;5045435;28;20071;-63
2022/01/24 03:41:02;;;;;;;7.53;6.05;;;5.70;99.90;;;;;;5045740;28;20280;-65
2022/01/24 03:43:28;;;;;;;8.85;6.05;;;5.70;99.90;;;;;;5045280;28;20056;-63
2022/01/24 03:48:42;;;;;;;8.43;6.53;;;5.70;99.90;;;;;;5043804;28;20162;-64
2022/01/24 03:51:09;;;;;;;8.32;6.13;;;5.70;99.90;;;;;;5044040;28;20053;-63
2022/01/24 03:53:34;;;;;;;9.48;6.40;;;5.70;99.90;;;;;;5043350;28;20455;-63
2022/01/24 03:56:00;;;;;;;7.90;6.47;;;5.70;99.90;;;;;;5044186;28;20042;-64
2022/01/24 03:58:26;;;;;;;8.45;6.40;;;5.70;99.90;;;;;;5043665;28;20102;-63
2022/01/24 04:00:52;;;;;;;8.10;5.83;;;5.70;99.90;;;;;;5045410;28;20043;-64
2022/01/24 04:03:18;;;;;;;10.07;7.13;;;5.70;99.90;;;;;;5045181;28;20041;-64
2022/01/24 04:05:44;;;;;;;8.18;6.53;;;5.70;99.90;;;;;;5045150;28;20056;-63
2022/01/24 04:08:10;;;;;;;;;;;5.70;99.90;;;;;;5045196;28;20053;-64
2022/01/24 04:10:45;;;;;;;9.13;6.85;;;5.60;99.90;;;;;;5044943;28;19947;-63
2022/01/24 04:13:31;;;;;;;8.98;6.75;;;5.60;99.90;;;;;;5039800;28;20061;-64
2022/01/24 04:16:52;;;;;;;10.85;6.70;;;5.60;99.90;;;;;;5043432;28;20053;-64
2022/01/24 04:18:57;;;;;;;8.25;6.80;;;5.60;99.90;;;;;;5036737;28;20404;-64
2022/01/24 04:21:38;;;;;;;;;;;;;;;;;;;;;
2022/01/24 04:26:27;;;;;;;8.65;7.15;;;5.70;99.90;;;;;;5044635;28;20076;-63
2022/01/24 04:28:52;;;;;;;8.48;7.05;;;5.70;99.90;;;;;;5042929;28;20073;-64
2022/01/24 04:31:18;;;;;;;9.13;6.90;;;5.70;99.90;;;;;;5042881;28;20080;-63
2022/01/24 04:33:45;;;;;;;10.13;7.25;;;5.70;99.90;;;;;;5052648;28;20308;-63
2022/01/24 04:36:11;;;;;;;10.57;7.90;;;5.70;99.90;;;;;;5027496;28;20075;-64
2022/01/24 04:38:36;;;;;;;9.50;7.18;;;5.70;99.90;;;;;;5042713;28;20056;-64
2022/01/24 04:41:07;;;;;;;11.55;8.45;;;5.70;99.90;;;;;;5044205;28;20048;-64
2022/01/24 04:44:02;;;;;;;9.95;8.38;;;5.70;99.90;;;;;;5042180;28;20108;-63
2022/01/24 04:54:44;;;;;;;12.27;8.27;;;5.70;99.90;;;;;;5043806;28;20381;-63
2022/01/24 04:57:17;;;;;;;10.55;8.50;;;5.70;99.90;;;;;;5044030;28;20042;-64
2022/01/24 04:59:47;;;;;;;14.00;8.50;;;5.70;99.90;;;;;;5043745;28;20037;-64
2022/01/24 05:02:13;;;;;;;11.63;9.13;;;5.70;99.90;;;;;;5043678;28;20151;-63
2022/01/24 05:04:39;;;;;;;11.38;8.32;;;5.70;99.90;;;;;;5042590;28;20041;-63
2022/01/24 05:07:04;;;;;;;17.03;9.50;;;5.70;99.90;;;;;;5026438;28;20107;-63
2022/01/24 05:09:36;;;;;;;12.00;9.07;;;5.70;99.90;;;;;;5041841;28;20052;-64
2022/01/24 05:12:13;;;;;;;12.95;9.70;;;5.70;99.90;;;;;;5032389;28;20316;-64
2022/01/24 05:25:35;;;;;;;13.73;10.15;;;5.70;99.90;;;;;;5043731;28;20072;-64
2022/01/24 05:28:01;;;;;;;11.90;9.33;;;5.70;99.90;;;;;;5042133;28;20046;-63
2022/01/24 05:30:27;;;;;;;13.40;10.37;;;5.70;99.90;;;;;;5041472;28;20054;-63
2022/01/24 05:32:52;;;;;;;14.90;10.13;;;5.60;99.90;;;;;;5043480;28;20057;-63
2022/01/24 05:35:18;;;;;;;14.77;10.37;;;5.60;99.90;;;;;;5041267;28;20375;-63
2022/01/24 05:37:44;;;;;;;15.43;10.17;;;5.70;99.90;;;;;;5038743;28;20099;-63
2022/01/24 05:40:10;;;;;;;12.63;9.90;;;5.60;99.90;;;;;;5037212;28;20125;-63
2022/01/24 05:42:36;;;;;;;14.40;10.48;;;5.60;99.90;;;;;;5039158;28;20045;-63
2022/01/24 05:45:06;;;;;;;15.02;10.75;;;5.60;99.90;;;;;;5021816;28;20062;-63
2022/01/24 05:47:32;;;;;;;12.85;10.07;;;5.60;99.90;;;;;;5038873;28;20075;-63
2022/01/24 05:49:57;;;;;;;15.50;11.32;;;5.60;99.90;;;;;;5036172;28;20067;-63
2022/01/24 05:52:23;;;;;;;14.02;10.68;;;5.60;99.90;;;;;;5043101;28;20091;-64
2022/01/24 05:54:49;;;;;;;14.48;11.02;;;5.60;99.90;;;;;;5042740;28;20048;-64
2022/01/24 05:57:15;;;;;;;14.43;10.40;;;5.60;99.90;;;;;;5024981;28;20069;-64
2022/01/24 05:59:40;;;;;;;13.85;11.27;;;5.60;99.90;;;;;;5041350;28;20045;-64
2022/01/24 06:02:06;;;;;;;16.07;12.07;;;5.60;99.90;;;;;;5041131;28;20105;-63
2022/01/24 06:04:32;;;;;;;17.15;12.10;;;5.60;99.90;;;;;;5042955;28;20049;-64
2022/01/24 06:06:58;;;;;;;18.77;11.57;;;5.50;99.90;;;;;;5041606;28;20457;-64
2022/01/24 06:09:23;;;;;;;16.95;12.52;;;5.60;99.90;;;;;;5042407;28;20359;-63
2022/01/24 06:11:51;;;;;;;16.37;11.67;;;5.60;99.90;;;;;;5040744;28;20064;-64
2022/01/24 06:14:16;;;;;;;19.20;12.80;;;5.60;99.90;;;;;;5040791;28;20057;-64
2022/01/24 06:16:43;;;;;;;16.63;12.23;;;5.60;99.90;;;;;;5041259;28;20039;-63
2022/01/24 06:19:09;;;;;;;20.00;12.95;;;5.60;99.90;;;;;;5040929;28;20347;-63
2022/01/24 06:21:35;;;;;;;18.00;11.93;;;5.60;99.90;;;;;;5040987;28;20053;-63
2022/01/24 06:24:00;;;;;;;15.82;11.77;;;5.70;99.90;;;;;;5040767;28;20119;-63
2022/01/24 06:26:26;;;;;;;17.67;12.33;;;5.70;99.90;;;;;;5041373;28;20140;-63
2022/01/24 06:28:52;;;;;;;17.55;12.48;;;5.60;99.90;;;;;;5050227;28;20080;-63
2022/01/24 06:31:19;;;;;;;18.95;14.10;;;5.60;99.90;;;;;;5041224;28;20067;-63
2022/01/24 06:33:44;;;;;;;15.70;11.68;;;5.70;99.90;;;;;;5042071;28;20045;-63
2022/01/24 06:36:11;;;;;;;17.60;12.75;;;5.70;99.90;;;;;;5041148;28;20103;-63
2022/01/24 06:38:37;;;;;;;17.17;12.30;;;5.60;99.90;;;;;;5042072;28;20049;-63
2022/01/24 06:41:03;;;;;;;21.93;13.23;;;5.70;99.90;;;;;;5041038;28;20328;-64
2022/01/24 06:43:28;;;;;;;18.60;13.00;;;5.70;99.90;;;;;;5024270;28;20152;-63
2022/01/24 06:45:54;;;;;;;18.60;13.52;;;5.60;99.90;;;;;;5040991;28;20155;-64
2022/01/24 06:48:20;;;;;;;16.77;12.10;;;5.70;99.90;;;;;;5043070;28;20442;-63
2022/01/24 06:50:46;;;;;;;15.33;11.70;;;5.60;99.90;;;;;;5042673;28;20052;-63
2022/01/24 06:53:11;;;;;;;15.73;11.48;;;5.60;99.90;;;;;;5040474;28;20073;-64
2022/01/24 06:55:37;;;;;;;18.67;12.43;;;5.70;99.90;;;;;;5042115;28;20045;-63
2022/01/24 06:58:03;;;;;;;16.25;12.70;;;5.70;99.90;;;;;;5042315;28;20132;-63
2022/01/24 07:00:31;;;;;;;16.15;12.85;;;5.60;99.90;;;;;;5007884;28;20125;-63
2022/01/24 07:02:57;;;;;;;17.02;12.02;;;5.60;99.90;;;;;;5041736;28;20053;-63
2022/01/24 07:05:24;;;;;;;17.60;12.63;;;5.60;99.90;;;;;;5040606;28;20072;-63
2022/01/24 07:07:50;;;;;;;17.02;11.68;;;5.60;99.90;;;;;;5039962;28;20049;-63
2022/01/24 07:10:16;;;;;;;16.35;12.15;;;5.60;99.90;;;;;;5042415;28;20834;-63
2022/01/24 07:12:42;;;;;;;16.73;12.02;;;5.60;99.90;;;;;;5028758;28;20057;-63
2022/01/24 07:15:12;;;;;;;16.17;12.07;;;5.60;99.90;;;;;;5035996;28;20085;-63
2022/01/24 07:20:22;;;;;;;16.98;11.85;;;5.60;99.90;;;;;;5042391;28;20060;-64
2022/01/24 07:22:48;;;;;;;16.85;11.98;;;5.60;99.90;;;;;;5040517;28;20046;-63
2022/01/24 07:25:14;;;;;;;18.25;12.35;;;5.60;99.90;;;;;;5041634;28;20071;-63
2022/01/24 07:27:39;;;;;;;17.33;11.93;;;5.60;99.90;;;;;;5040783;28;20058;-63
2022/01/24 07:30:05;;;;;;;15.67;11.87;;;5.60;99.90;;;;;;5041569;28;20354;-63
2022/01/24 07:32:32;;;;;;;16.40;12.23;;;5.60;99.90;;;;;;5041742;28;20071;-63
2022/01/24 07:34:58;;;;;;;16.17;11.93;;;5.70;99.90;;;;;;5041126;28;20053;-63
2022/01/24 07:37:25;;;;;;;16.90;12.35;;;5.60;99.90;;;;;;5041660;28;20067;-63
2022/01/24 07:39:53;;;;;;;15.65;12.10;;;5.70;99.90;;;;;;5039396;28;20048;-63
2022/01/24 07:42:51;;;;;;;16.45;12.27;;;5.60;99.90;;;;;;5040028;28;20060;-61
2022/01/24 07:45:15;;;;;;;19.02;12.73;;;5.60;99.90;;;;;;5027085;28;20060;-62
2022/01/24 07:47:41;;;;;;;16.52;11.75;;;5.60;99.90;;;;;;5039388;28;20671;-62
2022/01/24 07:50:08;;;;;;;15.93;12.00;;;5.60;99.90;;;;;;5041438;28;20045;-61
2022/01/24 07:52:35;;;;;;;15.00;11.40;;;5.60;99.90;;;;;;5040532;28;20041;-62
2022/01/24 07:55:00;;;;;;;14.98;11.30;;;5.60;99.90;;;;;;5039555;28;20061;-64
2022/01/24 07:57:26;;;;;;;15.73;11.47;;;5.60;99.90;;;;;;5041523;28;20120;-63
2022/01/24 07:59:52;;;;;;;15.47;11.17;;;5.60;99.90;;;;;;5039981;28;20457;-63
2022/01/24 08:02:17;;;;;;;14.63;10.87;;;5.60;99.90;;;;;;5040023;28;20380;-63
2022/01/24 08:04:43;;;;;;;16.53;11.73;;;5.60;99.90;;;;;;5039910;28;20056;-64
2022/01/24 08:07:09;;;;;;;13.43;10.87;;;5.60;99.90;;;;;;5040018;28;20328;-65
2022/01/24 08:09:34;;;;;;;16.80;12.03;;;5.60;99.90;;;;;;5041252;28;20040;-64
2022/01/24 08:12:01;;;;;;;17.33;11.20;;;5.60;99.90;;;;;;5039850;28;20084;-64
2022/01/24 08:14:27;;;;;;;14.23;10.65;;;5.60;99.90;;;;;;5019827;28;20056;-63
2022/01/24 08:16:53;;;;;;;14.30;10.65;;;5.60;99.90;;;;;;5050585;28;20064;-63
2022/01/24 08:19:19;;;;;;;13.48;10.13;;;5.60;99.90;;;;;;5040878;28;20104;-66
2022/01/24 08:21:45;;;;;;;16.87;11.10;;;5.60;99.90;;;;;;5026598;28;20049;-64
2022/01/24 08:24:12;;;;;;;14.30;10.23;;;5.70;99.90;;;;;;5034160;28;20311;-65
2022/01/24 08:26:38;;;;;;;19.02;11.15;;;5.60;99.90;;;;;;5043407;28;20079;-65
2022/01/24 08:29:05;;;;;;;15.25;10.82;;;5.70;99.90;;;;;;5044779;28;20041;-65
2022/01/24 08:31:31;;;;;;;14.52;11.18;;;5.70;99.90;;;;;;5055019;28;20327;-64
2022/01/24 08:33:57;;;;;;;11.88;9.43;;;5.70;99.90;;;;;;5059914;28;20076;-64
2022/01/24 08:36:23;;;;;;;12.73;9.93;;;5.70;99.90;;;;;;5044845;28;20052;-64
2022/01/24 08:38:50;;;;;;;14.13;9.48;;;5.70;99.90;;;;;;5044625;28;20158;-64
2022/01/24 08:41:26;;;;;;;13.00;10.25;;;5.70;99.90;;;;;;5042925;28;20080;-64
2022/01/24 08:43:59;;;;;;;16.63;10.70;;;5.70;99.90;;;;;;5044581;28;20053;-64
2022/01/24 08:46:24;;;;;;;13.25;10.35;;;5.70;99.90;;;;;;5042863;28;20057;-64
2022/01/24 08:48:50;;;;;;;12.70;10.20;;;5.70;99.90;;;;;;5042828;28;20116;-65
2022/01/24 09:03:29;;;;;;;18.10;12.27;;;5.80;99.90;;;;;;5049803;28;20158;-65
2022/01/24 09:08:22;;;;;;;16.73;12.40;;;5.80;99.90;;;;;;5044544;28;20095;-67
2022/01/24 09:13:14;;;;;;;18.38;12.70;;;5.80;99.90;;;;;;5038714;28;20190;-66
2022/01/24 09:15:40;;;;;;;16.90;12.32;;;5.80;99.90;;;;;;5044448;28;20052;-65
2022/01/24 09:18:05;;;;;;;18.58;11.98;;;5.80;99.90;;;;;;5045918;28;20049;-64
2022/01/24 09:20:32;;;;;;;17.13;12.57;;;5.80;99.90;;;;;;5048542;28;20101;-63
2022/01/24 09:22:57;;;;;;;18.02;13.18;;;5.80;99.90;;;;;;5043491;28;20055;-64
2022/01/24 09:25:23;;;;;;;18.07;12.70;;;5.80;99.90;;;;;;5022701;28;20057;-66
2022/01/24 09:27:49;;;;;;;19.67;13.48;;;5.80;99.90;;;;;;5062924;28;20053;-66
2022/01/24 09:30:19;;;;;;;19.35;13.70;;;5.80;99.90;;;;;;5043251;28;20069;-67
2022/01/24 09:32:45;;;;;;;18.70;13.00;;;5.80;99.90;;;;;;5036905;28;20072;-67
2022/01/24 09:37:37;;;;;;;19.67;12.90;;;5.80;99.90;;;;;;5053875;28;20036;-65
2022/01/24 09:40:04;;;;;;;21.33;13.35;;;5.90;99.90;;;;;;5061498;28;20041;-66
2022/01/24 09:42:30;;;;;;;19.83;13.73;;;5.90;99.90;;;;;;5052276;28;20081;-65
2022/01/24 09:44:56;;;;;;;;;;;5.90;99.90;;;;;;5051387;28;20049;-66
2022/01/24 09:47:22;;;;;;;22.35;16.15;;;5.80;99.90;;;;;;5052361;28;20033;-65
2022/01/24 09:49:49;;;;;;;23.00;16.35;;;5.90;99.90;;;;;;5053634;28;20045;-66
2022/01/24 09:52:15;;;;;;;23.50;17.63;;;5.90;99.90;;;;;;5052078;28;20108;-65
2022/01/24 09:54:41;;;;;;;;;;;5.90;99.90;;;;;;5059127;28;20072;-67
2022/01/24 09:57:07;;;;;;;21.10;16.42;;;5.80;99.90;;;;;;5051891;28;19920;-65
2022/01/24 09:59:33;;;;;;;22.67;16.70;;;5.90;99.90;;;;;;5017725;28;20045;-65
2022/01/24 10:02:00;;;;;;;24.85;18.30;;;5.90;99.90;;;;;;5048156;28;20094;-65
2022/01/24 10:04:26;;;;;;;28.38;19.92;;;5.90;99.90;;;;;;5052162;28;20040;-62
2022/01/24 10:09:17;;;;;;;28.45;19.75;;;5.90;99.90;;;;;;5049656;28;19971;-65
2022/01/24 10:12:01;;;;;;;27.60;19.00;;;5.90;99.90;;;;;;5041318;28;20117;-67
2022/01/24 10:17:23;;;;;;;26.02;18.67;;;6.00;99.90;;;;;;5041438;28;20071;-65
2022/01/24 10:19:49;;;;;;;27.27;20.00;;;6.00;99.90;;;;;;5041425;28;20117;-65
2022/01/24 10:22:16;;;;;;;29.40;21.40;;;6.00;99.90;;;;;;5041372;28;20049;-67
2022/01/24 10:32:05;;;;;;;32.75;21.15;;;6.00;99.90;;;;;;5038108;28;20040;-66
2022/01/24 10:34:36;;;;;;;32.33;22.35;;;6.00;99.90;;;;;;5037728;28;20053;-63
2022/01/24 10:37:02;;;;;;;33.80;23.45;;;6.00;99.90;;;;;;5041468;28;20052;-63
2022/01/24 10:45:00;;;;;;;34.03;22.67;;;6.10;99.90;;;;;;5042742;28;20056;-63
2022/01/24 10:47:32;;;;;;;33.75;23.30;;;6.10;99.90;;;;;;5049689;28;20048;-60
2022/01/24 10:50:03;;;;;;;33.33;22.83;;;6.10;99.90;;;;;;5042698;28;20041;-63
2022/01/24 10:52:31;;;;;;;35.08;23.23;;;6.10;99.90;;;;;;5044976;28;20050;-63
2022/01/24 10:55:22;;;;;;;35.53;24.48;;;6.10;99.90;;;;;;5042250;28;20080;-64
2022/01/24 10:57:51;;;;;;;36.95;24.63;;;6.20;99.90;;;;;;5042317;28;20076;-61
2022/01/24 11:00:23;;;;;;;39.03;25.00;;;6.20;99.90;;;;;;5040598;28;20037;-64
2022/01/24 11:02:51;;;;;;;36.38;25.38;;;6.20;99.90;;;;;;5037657;28;20107;-63
2022/01/24 11:05:23;;;;;;;36.35;25.02;;;6.20;99.90;;;;;;5041429;28;20361;-63
2022/01/24 11:07:57;;;;;;;40.47;27.25;;;6.20;99.90;;;;;;5059426;28;20044;-63
2022/01/24 11:10:31;;;;;;;40.20;26.98;;;6.10;99.90;;;;;;5045399;28;20056;-63
2022/01/24 11:12:58;;;;;;;43.53;26.25;;;6.20;99.90;;;;;;5048446;28;20164;-62
2022/01/24 11:15:25;;;;;;;40.45;27.00;;;6.20;99.90;;;;;;5053641;28;20116;-66
2022/01/24 11:17:53;;;;;;;41.40;26.60;;;6.20;99.90;;;;;;5060492;28;20117;-64
2022/01/24 11:20:21;;;;;;;40.35;27.33;;;6.20;99.90;;;;;;5059021;28;20116;-63
2022/01/24 11:22:57;;;;;;;42.50;27.02;;;6.20;99.90;;;;;;5052019;28;20052;-63
2022/01/24 11:25:24;;;;;;;42.63;28.40;;;6.20;99.90;;;;;;5049426;28;20040;-63
2022/01/24 11:27:50;;;;;;;44.38;29.13;;;6.20;99.90;;;;;;5042964;28;20115;-63
2022/01/24 11:30:27;;;;;;;43.35;29.60;;;6.20;99.90;;;;;;5042240;28;20132;-65
2022/01/24 11:32:58;;;;;;;46.25;29.42;;;6.20;99.90;;;;;;5040476;28;20061;-63
2022/01/24 11:35:41;;;;;;;40.33;27.08;;;6.20;99.90;;;;;;5061749;28;20064;-62
2022/01/24 11:38:27;;;;;;;39.25;26.02;;;6.20;99.90;;;;;;5040140;28;20168;-63
2022/01/24 11:40:59;;;;;;;43.15;26.60;;;6.20;99.90;;;;;;5040709;28;20489;-63
2022/01/24 11:43:34;;;;;;;39.25;25.50;;;6.20;99.90;;;;;;5052604;28;20516;-63
2022/01/24 11:46:07;;;;;;;46.42;28.33;;;6.20;99.90;;;;;;5053399;28;20038;-62
2022/01/24 11:48:38;;;;;;;42.45;27.83;;;6.30;99.90;;;;;;5044151;28;20045;-62
2022/01/24 11:51:11;;;;;;;43.30;27.88;;;6.20;99.90;;;;;;5040496;28;20077;-61
2022/01/24 11:53:42;;;;;;;39.78;27.02;;;6.20;99.90;;;;;;5024358;28;20485;-61
2022/01/24 11:56:22;;;;;;;41.42;26.55;;;6.30;99.90;;;;;;5045230;28;20434;-62
2022/01/24 11:58:49;;;;;;;35.38;24.35;;;6.30;99.90;;;;;;5045440;28;20045;-62
2022/01/24 12:01:36;;;;;;;41.00;27.10;;;6.30;99.90;;;;;;5038157;28;20104;-63
2022/01/24 12:04:03;;;;;;;38.60;26.83;;;6.30;99.90;;;;;;5024280;28;20090;-63
2022/01/24 12:06:28;;;;;;;44.25;28.98;;;6.30;99.90;;;;;;5039541;28;20053;-63
2022/01/24 12:09:03;;;;;;;39.65;27.65;;;6.30;99.90;;;;;;5044956;28;20038;-63
2022/01/24 12:11:33;;;;;;;40.95;27.08;;;6.20;99.90;;;;;;5045425;28;20114;-63
2022/01/24 12:14:12;;;;;;;47.72;28.17;;;6.20;99.90;;;;;;5041914;28;20160;-63
2022/01/24 12:16:42;;;;;;;42.13;27.60;;;6.20;99.90;;;;;;5045461;28;20407;-63
2022/01/24 12:19:10;;;;;;;38.88;25.98;;;6.20;99.90;;;;;;5042777;28;20049;-64
2022/01/24 12:21:43;;;;;;;40.50;26.77;;;6.20;99.90;;;;;;5045379;28;20065;-63
2022/01/24 12:24:13;;;;;;;37.47;25.77;;;6.20;99.90;;;;;;5044958;28;20396;-63
2022/01/24 12:26:46;;;;;;;37.78;25.83;;;6.20;99.90;;;;;;5060437;28;20057;-64
2022/01/24 12:29:15;;;;;;;40.53;26.75;;;6.20;99.90;;;;;;5044711;28;20044;-63
2022/01/24 12:31:54;;;;;;;37.80;25.50;;;6.20;99.90;;;;;;5044980;28;20045;-63
2022/01/24 12:34:36;;;;;;;36.33;24.67;;;6.20;99.90;;;;;;5059870;28;20080;-63
2022/01/24 12:37:31;;;;;;;35.10;23.63;;;6.20;99.90;;;;;;5026744;28;20148;-63
2022/01/24 12:40:07;;;;;;;39.15;25.45;;;6.20;99.90;;;;;;5042739;28;20138;-63
2022/01/24 12:42:57;;;;;;;39.67;26.30;;;6.30;99.90;;;;;;5045085;28;20120;-64
2022/01/24 12:48:17;;;;;;;34.72;24.67;;;6.30;99.90;;;;;;5042994;28;20124;-64
2022/01/24 12:50:47;;;;;;;38.42;25.13;;;6.20;99.90;;;;;;5044720;28;20133;-64
2022/01/24 12:53:15;;;;;;;32.92;23.45;;;6.20;99.90;;;;;;5059827;28;20045;-64
2022/01/24 12:55:43;;;;;;;36.40;22.50;;;6.20;99.90;;;;;;5042960;28;20042;-63
2022/01/24 12:58:09;;;;;;;33.15;22.95;;;6.20;99.90;;;;;;5042881;28;20052;-64
2022/01/24 13:00:35;;;;;;;33.10;22.55;;;6.20;99.90;;;;;;5044372;28;20504;-63
2022/01/24 13:03:01;;;;;;;30.58;21.42;;;6.20;99.90;;;;;;5044454;28;20049;-64
2022/01/24 13:05:28;;;;;;;36.67;23.58;;;6.10;99.90;;;;;;5041699;28;20049;-63
2022/01/24 13:07:56;;;;;;;34.63;23.50;;;6.10;99.90;;;;;;5024193;28;20125;-64
2022/01/24 13:10:26;;;;;;;36.33;24.42;;;6.10;99.90;;;;;;5032612;28;20033;-63
2022/01/24 13:13:10;;;;;;;32.38;23.38;;;6.10;99.90;;;;;;5043777;28;20059;-63
2022/01/24 13:21:22;;;;;;;32.80;22.17;;;6.10;99.90;;;;;;5043960;28;20064;-64
2022/01/24 13:23:57;;;;;;;32.03;22.30;;;6.10;99.90;;;;;;5042498;28;20052;-63
2022/01/24 13:26:23;;;;;;;32.97;23.38;;;6.10;99.90;;;;;;5042559;28;20296;-63
2022/01/24 13:28:49;;;;;;;35.33;23.58;;;6.20;99.90;;;;;;5042092;28;20053;-63
2022/01/24 13:31:15;;;;;;;32.03;22.95;;;6.20;99.90;;;;;;5042148;28;20120;-62
2022/01/24 13:33:45;;;;;;;37.65;23.15;;;6.20;99.90;;;;;;5042044;28;20101;-63
2022/01/24 13:36:14;;;;;;;33.70;23.33;;;6.10;99.90;;;;;;5042208;28;20105;-63
2022/01/24 13:38:47;;;;;;;37.80;24.67;;;6.20;99.90;;;;;;5043364;28;20052;-62
2022/01/24 13:41:20;;;;;;;38.38;25.30;;;6.20;99.90;;;;;;5041896;28;20090;-63
2022/01/24 13:43:45;;;;;;;40.65;25.83;;;6.20;99.90;;;;;;5043504;28;20128;-63
2022/01/24 13:46:30;;;;;;;37.33;24.27;;;6.20;99.90;;;;;;5042196;28;20049;-63
2022/01/24 13:48:56;;;;;;;38.13;24.55;;;6.10;99.90;;;;;;5043419;28;20086;-63
2022/01/24 13:51:36;;;;;;;40.07;25.20;;;6.10;99.90;;;;;;5041916;28;20059;-63
2022/01/24 13:54:05;;;;;;;36.95;25.40;;;6.20;99.90;;;;;;5041503;28;20052;-63
2022/01/24 13:56:40;;;;;;;34.42;22.88;;;6.10;99.90;;;;;;5043602;28;20112;-63
2022/01/24 13:59:19;;;;;;;32.10;22.52;;;6.20;99.90;;;;;;5041895;28;20126;-63
2022/01/24 14:02:02;;;;;;;33.08;22.42;;;6.20;99.90;;;;;;5035045;28;20088;-62
2022/01/24 14:04:37;;;;;;;30.85;21.85;;;6.20;99.90;;;;;;5028403;28;20049;-64
2022/01/24 14:07:12;;;;;;;32.88;22.35;;;6.10;99.90;;;;;;5056632;28;20045;-62
2022/01/24 14:10:03;;;;;;;30.95;21.63;;;6.10;99.90;;;;;;5038231;28;20045;-63
2022/01/24 14:20:36;;;;;;;35.35;22.88;;;6.10;99.90;;;;;;5042845;28;20108;-62
2022/01/24 14:23:03;;;;;;;34.88;23.77;;;6.00;99.90;;;;;;5041240;28;20140;-62
2022/01/24 14:25:31;;;;;;;38.30;23.98;;;6.00;99.90;;;;;;5021602;28;20129;-60
2022/01/24 14:27:58;;;;;;;35.83;23.70;;;6.00;99.90;;;;;;5037960;28;20038;-62
2022/01/24 14:30:27;;;;;;;36.72;24.70;;;6.10;99.90;;;;;;5021394;28;20655;-61
2022/01/24 14:33:11;;;;;;;35.22;22.80;;;6.00;99.90;;;;;;5021328;28;20049;-62
2022/01/24 14:35:39;;;;;;;32.42;22.02;;;6.00;99.90;;;;;;5038362;28;20041;-61
2022/01/24 14:38:07;;;;;;;32.67;21.73;;;6.00;99.90;;;;;;5040732;28;20071;-60
2022/01/24 14:40:53;;;;;;;31.40;21.08;;;5.90;99.90;;;;;;5042619;28;20152;-61
2022/01/24 14:46:12;;;;;;;35.85;21.83;;;5.90;99.90;;;;;;5040921;28;20461;-61
2022/01/24 14:48:59;;;;;;;34.03;21.83;;;5.90;99.90;;;;;;5042205;28;20077;-61
2022/01/24 14:51:29;;;;;;;31.95;22.17;;;5.90;99.90;;;;;;5042117;28;20052;-61
2022/01/24 14:54:04;;;;;;;34.33;22.80;;;5.90;99.90;;;;;;5040710;28;20049;-60
2022/01/24 14:56:30;;;;;;;29.73;20.73;;;5.90;99.90;;;;;;5040973;28;20049;-60
2022/01/24 14:58:57;;;;;;;32.13;21.52;;;5.90;99.90;;;;;;5040626;28;20056;-61
2022/01/24 15:01:23;;;;;;;;;;;5.90;99.90;;;;;;5043024;28;20041;-60
2022/01/24 15:03:50;;;;;;;31.52;20.77;;;5.80;99.90;;;;;;5042240;28;19928;-60
2022/01/24 15:06:16;;;;;;;31.98;20.60;;;5.90;99.90;;;;;;5037487;28;20046;-62
2022/01/24 15:08:44;;;;;;;31.65;20.95;;;5.90;99.90;;;;;;5022562;28;20034;-60
2022/01/24 15:11:14;;;;;;;31.35;21.60;;;5.80;99.90;;;;;;5041576;28;20532;-58
2022/01/24 15:13:50;;;;;;;31.20;21.45;;;5.80;99.90;;;;;;5040372;28;20103;-61
2022/01/24 15:16:17;;;;;;;34.05;21.23;;;5.80;99.90;;;;;;5040413;28;20167;-61
2022/01/24 15:25:29;;;;;;;32.45;21.65;;;5.80;99.90;;;;;;5040706;28;20056;-60
2022/01/24 15:27:17;;;;;;;32.30;20.73;;;5.80;99.90;;;;;;5044045;28;20049;-60
2022/01/24 15:29:43;;;;;;;34.40;20.43;;;5.80;99.90;;;;;;5043062;28;20115;-60
2022/01/24 15:32:09;;;;;;;32.23;20.97;;;5.80;99.90;;;;;;5045840;28;20042;-61
2022/01/24 15:34:36;;;;;;;;;;;5.80;99.90;;;;;;5045242;28;20109;-61
2022/01/24 15:37:03;;;;;;;32.10;20.48;;;5.70;99.90;;;;;;5024825;28;19964;-61
2022/01/24 15:39:29;;;;;;;31.83;20.95;;;5.70;99.90;;;;;;5024414;28;20132;-61